Time;durP1;ratioP1;P1;durP2;ratioP2;P2;SDS_P1;SDS_P2;PMS_P1;PMS_P2;Temp;Humidity;BMP_temperature;BMP_pressure;BME280_temperature;BME280_humidity;BME280_pressure;Samples;Min_cycle;Max_cycle;Signal;HPM_P1;HPM_P2
2022/10/29 00:02:24;;;;;;;;;;;13.10;99.90;;;;;;5044869;28;19927;-70
2022/10/29 00:04:51;;;;;;;;;;;13.10;99.90;;;;;;5044460;28;19921;-69
2022/10/29 00:07:17;;;;;;;;;;;13.10;99.90;;;;;;5046735;28;20167;-70
2022/10/29 00:09:44;;;;;;;;;;;13.00;99.90;;;;;;5084732;28;19959;-69
2022/10/29 00:12:10;;;;;;;;;;;13.00;99.90;;;;;;5084940;28;19983;-70
2022/10/29 00:14:37;;;;;;;;;;;13.00;99.90;;;;;;5084328;28;20291;-69
2022/10/29 00:17:04;;;;;;;;;;;13.00;99.90;;;;;;5084633;28;20055;-69
2022/10/29 00:19:32;;;;;;;;;;;12.90;99.90;;;;;;5084755;28;19987;-69
2022/10/29 00:21:58;;;;;;;;;;;12.90;99.90;;;;;;5084502;28;19920;-70
2022/10/29 00:24:25;;;;;;;;;;;12.90;99.90;;;;;;5084673;28;19927;-69
2022/10/29 00:26:51;;;;;;;;;;;12.90;99.90;;;;;;5084373;28;20144;-69
2022/10/29 00:29:18;;;;;;;;;;;12.90;99.90;;;;;;5084659;28;19987;-69
2022/10/29 00:31:45;;;;;;;;;;;12.90;99.90;;;;;;5084440;28;19955;-69
2022/10/29 00:34:11;;;;;;;;;;;12.80;99.90;;;;;;5084120;28;20244;-70
2022/10/29 00:36:39;;;;;;;;;;;12.80;99.90;;;;;;5084074;28;19989;-69
2022/10/29 00:39:06;;;;;;;;;;;12.80;99.90;;;;;;5084535;28;20028;-69
2022/10/29 00:41:33;;;;;;;;;;;12.80;99.90;;;;;;5084429;28;19921;-70
2022/10/29 00:44:19;;;;;;;;;;;12.80;99.90;;;;;;5084099;28;19963;-70
2022/10/29 00:46:47;;;;;;;;;;;12.70;99.90;;;;;;5083987;28;19987;-69
2022/10/29 00:49:13;;;;;;;;;;;12.80;99.90;;;;;;5084287;28;19983;-70
2022/10/29 00:51:42;;;;;;;;;;;12.80;99.90;;;;;;5083838;28;19983;-69
2022/10/29 00:54:09;;;;;;;;;;;12.80;99.90;;;;;;5083809;28;19995;-69
2022/10/29 00:56:37;;;;;;;;;;;12.70;99.90;;;;;;5083803;28;19920;-69
2022/10/29 00:59:05;;;;;;;;;;;12.70;99.90;;;;;;5083617;28;19940;-69
2022/10/29 01:01:31;;;;;;;;;;;12.70;99.90;;;;;;5083841;28;19921;-69
2022/10/29 01:03:59;;;;;;;;;;;12.70;99.90;;;;;;5083785;28;20222;-70
2022/10/29 01:06:26;;;;;;;;;;;12.70;99.90;;;;;;5083731;28;19921;-69
2022/10/29 01:08:54;;;;;;;;;;;12.60;99.90;;;;;;5083067;28;19983;-70
2022/10/29 01:11:25;;;;;;;;;;;12.60;99.90;;;;;;5063936;28;19921;-68
2022/10/29 01:13:56;;;;;;;;;;;12.60;99.90;;;;;;5063817;28;19943;-69
2022/10/29 01:16:27;;;;;;;;;;;12.50;99.90;;;;;;5082336;28;19979;-69
2022/10/29 01:18:59;;;;;;;;;;;12.50;99.90;;;;;;5083588;28;19956;-69
2022/10/29 01:21:38;;;;;;;;;;;12.50;99.90;;;;;;5083371;28;20115;-70
2022/10/29 01:24:26;;;;;;;;;;;12.40;99.90;;;;;;5083980;28;19962;-70
2022/10/29 01:27:05;;;;;;;;;;;12.40;99.90;;;;;;5083655;28;19926;-69
2022/10/29 01:29:41;;;;;;;;;;;12.40;99.90;;;;;;5083678;28;19987;-68
2022/10/29 01:32:10;;;;;;;;;;;12.40;99.90;;;;;;5083648;28;19963;-69
2022/10/29 01:34:40;;;;;;;;;;;12.30;99.90;;;;;;5083402;28;19927;-70
2022/10/29 01:37:13;;;;;;;;;;;12.30;99.90;;;;;;5083723;28;19983;-70
2022/10/29 01:39:41;;;;;;;;;;;12.30;99.90;;;;;;5083482;28;20216;-69
2022/10/29 01:42:12;;;;;;;;;;;12.30;99.90;;;;;;5083638;28;19921;-69
2022/10/29 01:44:41;;;;;;;;;;;12.30;99.90;;;;;;5083733;28;19920;-70
2022/10/29 01:47:12;;;;;;;;;;;12.30;99.90;;;;;;5083788;28;19920;-70
2022/10/29 01:49:40;;;;;;;;;;;12.20;99.90;;;;;;5083987;28;19955;-69
2022/10/29 01:52:07;;;;;;;;;;;12.20;99.90;;;;;;5084029;28;19921;-69
2022/10/29 01:54:34;;;;;;;;;;;12.20;99.90;;;;;;5083070;28;20226;-69
2022/10/29 01:57:01;;;;;;;;;;;12.20;99.90;;;;;;5083202;28;19984;-69
2022/10/29 01:59:29;;;;;;;;;;;12.10;99.90;;;;;;5083144;28;19921;-70
2022/10/29 02:02:01;;;;;;;;;;;12.00;99.90;;;;;;5083143;28;20263;-69
2022/10/29 02:04:46;;;;;;;;;;;12.00;99.90;;;;;;5083493;28;19920;-69
2022/10/29 02:07:18;;;;;;;;;;;12.00;99.90;;;;;;5083414;28;19920;-69
2022/10/29 02:09:49;;;;;;;;;;;12.00;99.90;;;;;;5083428;28;19980;-69
2022/10/29 02:12:18;;;;;;;;;;;12.00;99.90;;;;;;5082993;28;20234;-70
2022/10/29 02:14:47;;;;;;;;;;;12.00;99.90;;;;;;5082994;28;19995;-69
2022/10/29 02:17:14;;;;;;;;;;;11.90;99.90;;;;;;5083152;28;19921;-69
2022/10/29 02:19:41;;;;;;;;;;;11.90;99.90;;;;;;5083364;28;19983;-69
2022/10/29 02:22:07;;;;;;;;;;;11.80;99.90;;;;;;5083316;28;19979;-69
2022/10/29 02:24:35;;;;;;;;;;;11.80;99.90;;;;;;5082863;28;20382;-70
2022/10/29 02:27:02;;;;;;;;;;;11.80;99.90;;;;;;5082975;28;19928;-69
2022/10/29 02:29:28;;;;;;;;;;;11.70;99.90;;;;;;5083139;28;20170;-69
2022/10/29 02:31:55;;;;;;;;;;;11.70;99.90;;;;;;5083126;28;19988;-69
2022/10/29 02:34:22;;;;;;;;;;;11.70;99.90;;;;;;5085209;28;19984;-69
2022/10/29 02:36:48;;;;;;;;;;;11.70;99.90;;;;;;5086170;28;19926;-68
2022/10/29 02:39:15;;;;;;;;;;;11.70;99.90;;;;;;5086680;28;19955;-69
2022/10/29 02:41:43;;;;;;;;;;;11.70;99.90;;;;;;5086642;28;19962;-69
2022/10/29 02:44:09;;;;;;;;;;;11.70;99.90;;;;;;5086699;28;19942;-69
2022/10/29 02:46:38;;;;;;;;;;;11.70;99.90;;;;;;5086136;28;19983;-69
2022/10/29 02:49:05;;;;;;;;;;;11.70;99.90;;;;;;5086577;28;19966;-69
2022/10/29 02:51:31;;;;;;;;;;;11.70;99.90;;;;;;5086388;28;19988;-69
2022/10/29 02:53:58;;;;;;;;;;;11.60;99.90;;;;;;5086509;28;20112;-70
2022/10/29 02:56:25;;;;;;;;;;;11.60;99.90;;;;;;5086245;28;19983;-69
2022/10/29 02:58:53;;;;;;;;;;;11.60;99.90;;;;;;5086260;28;19979;-69
2022/10/29 03:01:19;;;;;;;;;;;11.50;99.90;;;;;;5086560;28;20097;-68
2022/10/29 03:03:46;;;;;;;;;;;11.50;99.90;;;;;;5086415;28;19920;-69
2022/10/29 03:06:13;;;;;;;;;;;11.60;99.90;;;;;;5085977;28;19984;-69
2022/10/29 03:08:40;;;;;;;;;;;11.60;99.90;;;;;;5086165;28;19994;-69
2022/10/29 03:11:06;;;;;;;;;;;11.50;99.90;;;;;;5086221;28;19952;-69
2022/10/29 03:13:33;;;;;;;;;;;11.50;99.90;;;;;;5086210;28;19951;-69
2022/10/29 03:16:01;;;;;;;;;;;11.40;99.90;;;;;;5085547;28;20258;-69
2022/10/29 03:18:27;;;;;;;;;;;11.40;99.90;;;;;;5085689;28;19920;-69
2022/10/29 03:20:54;;;;;;;;;;;11.40;99.90;;;;;;5085741;28;19955;-69
2022/10/29 03:23:21;;;;;;;;;;;11.40;99.90;;;;;;5085948;28;19976;-69
2022/10/29 03:25:51;;;;;;;;;;;11.40;99.90;;;;;;5085555;28;20011;-69
2022/10/29 03:28:17;;;;;;;;;;;11.40;99.90;;;;;;5085705;28;20003;-69
2022/10/29 03:30:44;;;;;;;;;;;11.30;99.90;;;;;;5085549;28;20000;-68
2022/10/29 03:33:12;;;;;;;;;;;11.30;99.90;;;;;;5085917;28;19948;-70
2022/10/29 03:35:38;;;;;;;;;;;11.30;99.90;;;;;;5085079;28;20226;-70
2022/10/29 03:38:05;;;;;;;;;;;11.20;99.90;;;;;;5085402;28;19992;-69
2022/10/29 03:40:31;;;;;;;;;;;11.20;99.90;;;;;;5077840;28;19952;-68
2022/10/29 03:42:58;;;;;;;;;;;11.20;99.90;;;;;;5065293;28;19952;-69
2022/10/29 03:45:25;;;;;;;;;;;11.20;99.90;;;;;;5064878;28;19992;-69
2022/10/29 03:47:51;;;;;;;;;;;11.20;99.90;;;;;;5065457;28;19971;-69
2022/10/29 03:50:19;;;;;;;;;;;11.30;99.90;;;;;;5065171;28;20279;-69
2022/10/29 03:52:46;;;;;;;;;;;11.20;99.90;;;;;;5082813;28;19980;-69
2022/10/29 03:55:12;;;;;;;;;;;11.20;99.90;;;;;;5084924;28;20003;-69
2022/10/29 03:57:39;;;;;;;;;;;11.20;99.90;;;;;;5084988;28;20255;-70
2022/10/29 04:00:06;;;;;;;;;;;11.20;99.90;;;;;;5085204;28;19920;-69
2022/10/29 04:02:33;;;;;;;;;;;11.20;99.90;;;;;;5085134;28;19959;-69
2022/10/29 04:04:59;;;;;;;;;;;11.20;99.90;;;;;;5084419;28;19955;-69
2022/10/29 04:07:27;;;;;;;;;;;11.20;99.90;;;;;;5081675;28;19927;-70
2022/10/29 04:09:54;;;;;;;;;;;11.10;99.90;;;;;;5064851;28;19963;-69
2022/10/29 04:12:21;;;;;;;;;;;11.10;99.90;;;;;;5064665;28;19963;-70
2022/10/29 04:14:47;;;;;;;;;;;11.10;99.90;;;;;;5064600;28;19987;-69
2022/10/29 04:17:14;;;;;;;;;;;11.10;99.90;;;;;;5064674;28;19992;-69
2022/10/29 04:19:40;;;;;;;;;;;11.10;99.90;;;;;;5068889;28;19955;-70
2022/10/29 04:22:07;;;;;;;;;;;11.10;99.90;;;;;;5084376;28;19955;-70
2022/10/29 04:24:35;;;;;;;;;;;11.10;99.90;;;;;;5084114;28;19983;-69
2022/10/29 04:27:02;;;;;;;;;;;11.10;99.90;;;;;;5084464;28;19988;-69
2022/10/29 04:29:28;;;;;;;;;;;11.10;99.90;;;;;;5084292;28;19987;-70
2022/10/29 04:31:55;;;;;;;;;;;11.00;99.90;;;;;;5084609;28;19995;-70
2022/10/29 04:34:21;;;;;;;;;;;11.00;99.90;;;;;;5084211;28;20410;-70
2022/10/29 04:36:48;;;;;;;;;;;11.00;99.90;;;;;;5084079;28;19985;-69
2022/10/29 04:39:15;;;;;;;;;;;11.00;99.90;;;;;;5084353;28;20112;-70
2022/10/29 04:41:42;;;;;;;;;;;11.00;99.90;;;;;;5084307;28;19988;-72
2022/10/29 04:44:09;;;;;;;;;;;11.00;99.90;;;;;;5084202;28;19920;-70
2022/10/29 04:46:36;;;;;;;;;;;10.90;99.90;;;;;;5083735;28;19928;-70
2022/10/29 04:49:02;;;;;;;;;;;10.90;99.90;;;;;;5084143;28;19983;-69
2022/10/29 04:51:29;;;;;;;;;;;10.90;99.90;;;;;;5083654;28;20246;-69
2022/10/29 04:53:55;;;;;;;;;;;10.90;99.90;;;;;;5084117;28;19927;-69
2022/10/29 04:56:22;;;;;;;;;;;10.90;99.90;;;;;;5082609;28;19926;-70
2022/10/29 04:58:52;;;;;;;;;;;10.90;99.90;;;;;;5083610;28;19952;-70
2022/10/29 05:01:18;;;;;;;;;;;10.90;99.90;;;;;;5083548;28;20151;-70
2022/10/29 05:03:45;;;;;;;;;;;10.90;99.90;;;;;;5083459;28;19962;-70
2022/10/29 05:06:12;;;;;;;;;;;10.90;99.90;;;;;;5083510;28;19927;-69
2022/10/29 05:08:38;;;;;;;;;;;11.00;99.90;;;;;;5083934;28;20183;-70
2022/10/29 05:11:05;;;;;;;;;;;11.00;99.90;;;;;;5083898;28;19991;-68
2022/10/29 05:13:32;;;;;;;;;;;11.00;99.90;;;;;;5083840;28;19927;-69
2022/10/29 05:16:00;;;;;;;;;;;11.00;99.90;;;;;;5083383;28;19921;-69
2022/10/29 05:18:27;;;;;;;;;;;11.00;99.90;;;;;;5083491;28;19924;-69
2022/10/29 05:20:54;;;;;;;;;;;11.00;99.90;;;;;;5083641;28;19951;-69
2022/10/29 05:23:21;;;;;;;;;;;11.00;99.90;;;;;;5083658;28;19959;-70
2022/10/29 05:25:48;;;;;;;;;;;11.00;99.90;;;;;;5083169;28;19920;-69
2022/10/29 05:28:17;;;;;;;;;;;11.00;99.90;;;;;;5083411;28;19925;-69
2022/10/29 05:30:44;;;;;;;;;;;11.00;99.90;;;;;;5083455;28;19921;-70
2022/10/29 05:33:14;;;;;;;;;;;11.00;99.90;;;;;;5083385;28;19927;-68
2022/10/29 05:35:41;;;;;;;;;;;11.00;99.90;;;;;;5083580;28;19920;-70
2022/10/29 05:38:09;;;;;;;;;;;11.00;99.90;;;;;;5083683;28;19952;-69
2022/10/29 05:40:36;;;;;;;;;;;11.00;99.90;;;;;;5083527;28;20241;-70
2022/10/29 05:43:03;;;;;;;;;;;11.00;99.90;;;;;;5083724;28;19927;-70
2022/10/29 05:45:29;;;;;;;;;;;11.00;99.90;;;;;;5083028;28;19987;-69
2022/10/29 05:47:57;;;;;;;;;;;11.00;99.90;;;;;;5083413;28;19995;-68
2022/10/29 05:50:25;;;;;;;;;;;11.10;99.90;;;;;;5083282;28;19920;-70
2022/10/29 05:52:55;;;;;;;;;;;11.00;99.90;;;;;;5083427;28;19987;-70
2022/10/29 05:55:21;;;;;;;;;;;11.00;99.90;;;;;;5082735;28;20089;-70
2022/10/29 05:57:48;;;;;;;;;;;11.00;99.90;;;;;;5082888;28;19927;-70
2022/10/29 06:00:15;;;;;;;;;;;11.00;99.90;;;;;;5083003;28;20259;-70
2022/10/29 06:02:42;;;;;;;;;;;11.00;99.90;;;;;;5082832;28;19920;-70
2022/10/29 06:05:09;;;;;;;;;;;11.00;99.90;;;;;;5082966;28;20291;-70
2022/10/29 06:07:37;;;;;;;;;;;11.00;99.90;;;;;;5084655;28;19991;-69
2022/10/29 06:10:04;;;;;;;;;;;11.00;99.90;;;;;;5087123;28;19920;-70
2022/10/29 06:12:31;;;;;;;;;;;11.00;99.90;;;;;;5087146;28;19987;-69
2022/10/29 06:14:58;;;;;;;;;;;11.00;99.90;;;;;;5086488;28;20022;-70
2022/10/29 06:17:24;;;;;;;;;;;11.00;99.90;;;;;;5086917;28;19987;-70
2022/10/29 06:19:51;;;;;;;;;;;11.00;99.90;;;;;;5086721;28;19920;-69
2022/10/29 06:22:18;;;;;;;;;;;11.00;99.90;;;;;;5086990;28;19983;-70
2022/10/29 06:24:46;;;;;;;;;;;11.00;99.90;;;;;;5086622;28;19971;-70
2022/10/29 06:27:12;;;;;;;;;;;11.10;99.90;;;;;;5086469;28;19921;-69
2022/10/29 06:29:39;;;;;;;;;;;11.10;99.90;;;;;;5086690;28;19968;-65
2022/10/29 06:32:05;;;;;;;;;;;11.10;99.90;;;;;;5086521;28;19979;-66
2022/10/29 06:34:34;;;;;;;;;;;11.10;99.90;;;;;;5086213;28;20235;-66
2022/10/29 06:37:00;;;;;;;;;;;11.10;99.90;;;;;;5086153;28;20019;-69
2022/10/29 06:39:27;;;;;;;;;;;11.20;99.90;;;;;;5086605;28;20139;-70
2022/10/29 06:41:55;;;;;;;;;;;11.20;99.90;;;;;;5086454;28;19956;-69
2022/10/29 06:44:21;;;;;;;;;;;11.30;99.90;;;;;;5086102;28;19980;-68
2022/10/29 06:46:48;;;;;;;;;;;11.20;99.90;;;;;;5086096;28;20183;-69
2022/10/29 06:49:15;;;;;;;;;;;11.30;99.90;;;;;;5086151;28;19983;-69
2022/10/29 06:51:41;;;;;;;;;;;11.30;99.90;;;;;;5080910;28;19989;-70
2022/10/29 06:54:08;;;;;;;;;;;11.30;99.90;;;;;;5065840;28;19985;-69
2022/10/29 06:56:34;;;;;;;;;;;11.30;99.90;;;;;;5065788;28;20124;-70
2022/10/29 06:59:02;;;;;;;;;;;11.30;99.90;;;;;;5065997;28;19927;-69
2022/10/29 07:01:31;;;;;;;;;;;11.40;99.90;;;;;;5065991;28;19928;-69
2022/10/29 07:03:58;;;;;;;;;;;11.40;99.90;;;;;;5066001;28;19924;-69
2022/10/29 07:06:25;;;;;;;;;;;11.50;99.90;;;;;;5065567;28;19988;-69
2022/10/29 07:08:51;;;;;;;;;;;11.50;99.90;;;;;;5065697;28;19988;-69
2022/10/29 07:11:18;;;;;;;;;;;11.50;99.90;;;;;;5065746;28;20104;-70
2022/10/29 07:13:44;;;;;;;;;;;11.60;99.90;;;;;;5079242;28;19952;-69
2022/10/29 07:16:12;;;;;;;;;;;11.60;99.90;;;;;;5084945;28;19989;-69
2022/10/29 07:18:39;;;;;;;;;;;11.70;99.90;;;;;;5084824;28;19920;-69
2022/10/29 07:21:06;;;;;;;;;;;11.70;99.90;;;;;;5084244;28;19955;-69
2022/10/29 07:23:32;;;;;;;;;;;11.80;99.90;;;;;;5085322;28;19928;-70
2022/10/29 07:25:59;;;;;;;;;;;11.80;99.90;;;;;;5085610;28;20000;-70
2022/10/29 07:28:25;;;;;;;;;;;11.80;99.90;;;;;;5085214;28;19987;-70
2022/10/29 07:30:53;;;;;;;;;;;11.90;99.90;;;;;;5085272;28;19988;-74
2022/10/29 07:33:21;;;;;;;;;;;11.90;99.90;;;;;;5085304;28;19926;-72
2022/10/29 07:35:47;;;;;;;;;;;11.90;99.90;;;;;;5084487;28;19987;-70
2022/10/29 07:38:14;;;;;;;;;;;12.00;99.90;;;;;;5085603;28;19983;-70
2022/10/29 07:40:47;;;;;;;;;;;12.10;99.90;;;;;;5085378;28;19920;-70
2022/10/29 07:43:13;;;;;;;;;;;12.10;99.90;;;;;;5085483;28;19920;-72
2022/10/29 07:45:40;;;;;;;;;;;12.10;99.90;;;;;;5084891;28;20063;-70
2022/10/29 07:48:07;;;;;;;;;;;12.10;99.90;;;;;;5085015;28;19920;-70
2022/10/29 07:50:35;;;;;;;;;;;12.20;99.90;;;;;;5084832;28;20208;-70
2022/10/29 07:53:03;;;;;;;;;;;12.20;99.90;;;;;;5084884;28;19943;-70
2022/10/29 07:55:30;;;;;;;;;;;12.30;99.90;;;;;;5084622;28;19984;-70
2022/10/29 07:57:57;;;;;;;;;;;12.30;99.90;;;;;;5084661;28;19921;-70
2022/10/29 08:00:24;;;;;;;;;;;12.40;99.90;;;;;;5084739;28;20728;-70
2022/10/29 08:02:51;;;;;;;;;;;12.40;99.90;;;;;;5084795;28;19920;-70
2022/10/29 08:05:18;;;;;;;;;;;12.50;99.90;;;;;;5084498;28;19983;-70
2022/10/29 08:07:46;;;;;;;;;;;12.60;99.90;;;;;;5084653;28;20017;-70
2022/10/29 08:10:13;;;;;;;;;;;12.60;99.90;;;;;;5084450;28;19921;-70
2022/10/29 08:12:39;;;;;;;;;;;12.60;99.90;;;;;;5084413;28;19983;-70
2022/10/29 08:15:07;;;;;;;;;;;12.60;99.90;;;;;;5084026;28;19987;-70
2022/10/29 08:17:33;;;;;;;;;;;12.60;99.90;;;;;;5084019;28;19920;-70
2022/10/29 08:20:00;;;;;;;;;;;12.70;99.90;;;;;;5084545;28;19963;-70
2022/10/29 08:22:26;;;;;;;;;;;12.70;99.90;;;;;;5075061;28;20252;-70
2022/10/29 08:24:54;;;;;;;;;;;12.80;99.90;;;;;;5061768;28;19991;-69
2022/10/29 08:27:21;;;;;;;;;;;12.90;99.90;;;;;;5063227;28;19935;-70
2022/10/29 08:29:47;;;;;;;;;;;13.00;99.90;;;;;;5064071;28;19927;-70
2022/10/29 08:32:14;;;;;;;;;;;13.10;99.90;;;;;;5075005;28;20120;-70
2022/10/29 08:34:41;;;;;;;;;;;13.10;99.90;;;;;;5068417;28;19983;-70
2022/10/29 08:37:07;;;;;;;;;;;13.30;99.90;;;;;;5063499;28;19921;-70
2022/10/29 08:39:34;;;;;;;;;;;13.40;99.90;;;;;;5063934;28;19948;-70
2022/10/29 08:42:07;;;;;;;;;;;13.60;99.90;;;;;;5063615;28;19927;-69
2022/10/29 08:44:48;;;;;;;;;;;13.70;99.90;;;;;;5063663;28;19987;-70
2022/10/29 08:47:17;;;;;;;;;;;13.80;99.90;;;;;;5081979;28;19921;-70
2022/10/29 08:49:46;;;;;;;;;;;14.00;99.90;;;;;;5083484;28;20258;-70
2022/10/29 08:52:18;;;;;;;;;;;14.20;99.90;;;;;;5044281;28;20070;-70
2022/10/29 08:54:47;;;;;;;;;;;14.30;99.90;;;;;;5043803;28;19936;-70
2022/10/29 08:57:17;;;;;;;;;;;14.40;99.90;;;;;;5043403;28;19928;-70
2022/10/29 08:59:48;;;;;;;;;;;14.60;99.90;;;;;;5059771;28;19920;-70
2022/10/29 09:02:15;;;;;;;;;;;14.70;99.90;;;;;;5083555;28;19921;-70
2022/10/29 09:04:42;;;;;;;;;;;14.80;99.90;;;;;;5083041;28;19932;-70
2022/10/29 09:07:15;;;;;;;;;;;14.90;99.90;;;;;;5083508;28;19934;-70
2022/10/29 09:09:44;;;;;;;;;;;15.00;99.90;;;;;;5083775;28;20003;-70
2022/10/29 09:12:18;;;;;;;;;;;15.10;99.90;;;;;;5083649;28;19987;-70
2022/10/29 09:14:52;;;;;;;;;;;15.10;99.90;;;;;;5082918;28;19928;-70
2022/10/29 09:17:22;;;;;;;;;;;15.20;99.90;;;;;;5083267;28;19921;-70
2022/10/29 09:20:00;;;;;;;;;;;15.30;99.90;;;;;;5083572;28;19920;-70
2022/10/29 09:22:29;;;;;;;;;;;15.30;99.90;;;;;;5083399;28;19974;-70
2022/10/29 09:25:00;;;;;;;;;;;15.40;99.90;;;;;;5083034;28;19927;-70
2022/10/29 09:27:35;;;;;;;;;;;15.40;99.90;;;;;;5083086;28;19984;-70
2022/10/29 09:30:06;;;;;;;;;;;15.40;99.90;;;;;;5082849;28;19920;-69
2022/10/29 09:32:35;;;;;;;;;;;15.50;99.90;;;;;;5083052;28;19983;-70
2022/10/29 09:35:02;;;;;;;;;;;15.70;99.90;;;;;;5043126;28;19987;-70
2022/10/29 09:37:33;;;;;;;;;;;15.80;99.90;;;;;;5043062;28;19921;-70
2022/10/29 09:40:01;;;;;;;;;;;15.90;99.90;;;;;;5043252;28;20283;-70
2022/10/29 09:42:34;;;;;;;;;;;16.00;99.90;;;;;;5044202;28;19921;-70
2022/10/29 09:45:02;;;;;;;;;;;16.20;99.90;;;;;;5047412;28;20161;-70
2022/10/29 09:47:38;;;;;;;;;;;16.30;99.90;;;;;;5051772;28;19928;-70
2022/10/29 09:50:11;;;;;;;;;;;16.60;99.90;;;;;;5067739;28;19955;-70
2022/10/29 09:52:39;;;;;;;;;;;16.70;99.90;;;;;;5066727;28;19929;-70
2022/10/29 09:55:07;;;;;;;;;;;17.00;99.90;;;;;;5066654;28;19920;-70
2022/10/29 09:57:35;;;;;;;;;;;17.30;99.90;;;;;;5066191;28;19921;-70
2022/10/29 10:00:04;;;;;;;;;;;17.60;99.90;;;;;;5067311;28;20111;-69
2022/10/29 10:02:33;;;;;;;;;;;17.70;99.90;;;;;;5087146;28;20279;-70
2022/10/29 10:05:03;;;;;;;;;;;18.00;99.90;;;;;;5087102;28;19921;-69
2022/10/29 10:07:30;;;;;;;;;;;18.20;99.90;;;;;;5085344;28;19999;-69
2022/10/29 10:09:58;;;;;;;;;;;18.30;99.90;;;;;;5075511;28;19984;-70
2022/10/29 10:12:26;;;;;;;;;;;18.60;99.90;;;;;;5070899;28;20200;-69
2022/10/29 10:15:04;;;;;;;;;;;18.70;99.90;;;;;;5067252;28;19956;-69
2022/10/29 10:17:52;;;;;;;;;;;18.80;99.90;;;;;;5051042;28;19921;-69
2022/10/29 10:20:25;;;;;;;;;;;18.90;99.90;;;;;;5054380;28;19952;-70
2022/10/29 10:22:52;;;;;;;;;;;19.10;99.90;;;;;;5081295;28;19920;-71
2022/10/29 10:25:31;;;;;;;;;;;19.40;99.90;;;;;;5065769;28;19920;-68
2022/10/29 10:27:57;;;;;;;;;;;19.50;99.90;;;;;;5053534;28;19921;-68
2022/10/29 10:30:25;;;;;;;;;;;19.70;99.90;;;;;;5066717;28;19932;-69
2022/10/29 10:32:53;;;;;;;;;;;19.90;99.90;;;;;;5066915;28;19992;-68
2022/10/29 10:35:27;;;;;;;;;;;20.00;99.90;;;;;;5065708;28;19928;-69
2022/10/29 10:37:55;;;;;;;;;;;20.10;99.90;;;;;;5066137;28;19927;-69
2022/10/29 10:40:23;;;;;;;;;;;20.20;99.90;;;;;;5066676;28;19984;-69
2022/10/29 10:42:51;;;;;;;;;;;20.30;99.90;;;;;;5065400;28;19921;-69
2022/10/29 10:45:22;;;;;;;;;;;20.30;99.90;;;;;;5066081;28;19984;-69
2022/10/29 10:47:50;;;;;;;;;;;20.30;99.90;;;;;;5065782;28;19921;-69
2022/10/29 10:50:21;;;;;;;;;;;20.20;99.90;;;;;;5065524;28;19921;-68
2022/10/29 10:52:48;;;;;;;;;;;20.10;99.90;;;;;;5062633;28;19925;-68
2022/10/29 10:55:21;;;;;;;;;;;20.10;99.90;;;;;;5063242;28;19927;-69
2022/10/29 10:57:50;;;;;;;;;;;20.20;99.90;;;;;;5065664;28;20222;-68
2022/10/29 11:00:18;;;;;;;;;;;20.30;99.90;;;;;;5065994;28;19924;-68
2022/10/29 11:02:48;;;;;;;;;;;20.60;99.90;;;;;;5066234;28;19927;-69
2022/10/29 11:05:16;;;;;;;;;;;20.80;99.90;;;;;;5049917;28;20112;-68
2022/10/29 11:07:46;;;;;;;;;;;21.10;99.90;;;;;;5065664;28;19983;-69
2022/10/29 11:10:13;;;;;;;;;;;21.40;99.90;;;;;;5066129;28;19984;-69
2022/10/29 11:12:42;;;;;;;;;;;21.60;99.90;;;;;;5065958;28;19996;-69
2022/10/29 11:15:14;;;;;;;;;;;21.80;99.90;;;;;;5064130;28;19921;-69
2022/10/29 11:17:45;;;;;;;;;;;22.00;99.90;;;;;;5066175;28;19921;-69
2022/10/29 11:20:17;;;;;;;;;;;22.20;99.90;;;;;;5065959;28;20144;-69
2022/10/29 11:22:51;;;;;;;;;;;22.40;99.90;;;;;;5064390;28;19927;-69
2022/10/29 11:25:21;;;;;;;;;;;22.60;99.90;;;;;;5065089;28;19921;-69
2022/10/29 11:27:51;;;;;;;;;;;22.90;99.90;;;;;;5065485;28;19980;-68
2022/10/29 11:30:19;;;;;;;;;;;23.00;99.90;;;;;;5065271;28;19980;-69
2022/10/29 11:32:51;;;;;;;;;;;23.20;99.90;;;;;;5073457;28;19984;-68
2022/10/29 11:35:22;;;;;;;;;;;23.30;99.90;;;;;;5063269;28;19984;-70
2022/10/29 11:37:55;;;;;;;;;;;23.40;99.90;;;;;;5065357;28;20255;-70
2022/10/29 11:40:22;;;;;;;;;;;23.40;99.90;;;;;;5065792;28;19921;-70
2022/10/29 11:42:49;;;;;;;;;;;23.60;99.90;;;;;;5065853;28;20151;-70
2022/10/29 11:45:18;;;;;;;;;;;23.70;99.90;;;;;;5065353;28;19921;-70
2022/10/29 11:47:53;;;;;;;;;;;23.70;99.90;;;;;;5066484;28;20156;-71
2022/10/29 11:50:23;;;;;;;;;;;23.70;99.90;;;;;;5084874;28;20167;-69
2022/10/29 11:52:54;;;;;;;;;;;23.60;99.90;;;;;;5066609;28;19952;-69
2022/10/29 11:55:26;;;;;;;;;;;23.60;99.90;;;;;;5070098;28;19920;-70
2022/10/29 11:57:54;;;;;;;;;;;23.50;99.90;;;;;;5085067;28;19975;-70
2022/10/29 12:00:22;;;;;;;;;;;23.60;99.90;;;;;;5084901;28;19920;-70
2022/10/29 12:02:54;;;;;;;;;;;23.60;99.90;;;;;;5085422;28;19921;-70
2022/10/29 12:05:25;;;;;;;;;;;23.60;99.90;;;;;;5083592;28;19991;-71
2022/10/29 12:08:03;;;;;;;;;;;23.70;99.90;;;;;;5084660;28;20208;-68
2022/10/29 12:10:42;;;;;;;;;;;23.80;99.90;;;;;;5085074;28;19951;-69
2022/10/29 12:13:14;;;;;;;;;;;23.80;99.90;;;;;;5084966;28;19988;-69
2022/10/29 12:15:45;;;;;;;;;;;23.90;99.90;;;;;;5084029;28;20238;-69
2022/10/29 12:18:18;;;;;;;;;;;24.00;99.90;;;;;;5084752;28;19920;-70
2022/10/29 12:20:47;;;;;;;;;;;24.10;99.90;;;;;;5062391;28;20112;-69
2022/10/29 12:23:24;;;;;;;;;;;24.20;99.90;;;;;;5051925;28;19921;-70
2022/10/29 12:25:55;;;;;;;;;;;24.40;99.90;;;;;;5065216;28;19927;-71
2022/10/29 12:28:27;;;;;;;;;;;24.50;99.90;;;;;;5078623;28;20197;-70
2022/10/29 12:31:03;;;;;;;;;;;24.60;99.90;;;;;;5044178;28;19921;-70
2022/10/29 12:33:33;;;;;;;;;;;24.80;99.90;;;;;;5051148;28;19951;-71
2022/10/29 12:36:02;;;;;;;;;;;24.90;99.90;;;;;;5083963;28;20212;-70
2022/10/29 12:38:36;;;;;;;;;;;25.00;99.90;;;;;;5073991;28;20323;-72
2022/10/29 12:41:05;;;;;;;;;;;25.20;99.90;;;;;;5084579;28;19926;-70
2022/10/29 12:43:34;;;;;;;;;;;25.20;99.90;;;;;;5083315;28;20164;-71
2022/10/29 12:46:07;;;;;;;;;;;25.30;99.90;;;;;;5083836;28;19963;-70
2022/10/29 12:48:38;;;;;;;;;;;25.50;99.90;;;;;;5084120;28;19930;-70
2022/10/29 12:51:09;;;;;;;;;;;25.50;99.90;;;;;;5083356;28;19928;-70
2022/10/29 12:53:41;;;;;;;;;;;25.50;99.90;;;;;;5082927;28;19921;-71
2022/10/29 12:56:09;;;;;;;;;;;25.50;99.90;;;;;;5043330;28;19963;-70
2022/10/29 12:58:47;;;;;;;;;;;25.60;99.90;;;;;;5043355;28;19927;-70
2022/10/29 13:01:40;;;;;;;;;;;25.70;99.90;;;;;;5044035;28;19959;-71
2022/10/29 13:04:21;;;;;;;;;;;25.70;99.90;;;;;;5008271;28;19928;-69
2022/10/29 13:06:55;;;;;;;;;;;25.70;99.90;;;;;;5043499;28;20007;-69
2022/10/29 13:09:24;;;;;;;;;;;25.70;99.90;;;;;;5043761;28;20120;-70
2022/10/29 13:11:52;;;;;;;;;;;25.60;99.90;;;;;;5043512;28;19921;-71
2022/10/29 13:14:23;;;;;;;;;;;25.60;99.90;;;;;;5051880;28;19926;-71
2022/10/29 13:16:50;;;;;;;;;;;25.50;99.90;;;;;;5054149;28;19921;-71
2022/10/29 13:19:33;;;;;;;;;;;25.40;99.90;;;;;;5043076;28;19987;-71
2022/10/29 13:22:01;;;;;;;;;;;25.40;99.90;;;;;;5043385;28;19952;-70
2022/10/29 13:24:30;;;;;;;;;;;25.20;99.90;;;;;;5043363;28;19925;-70
2022/10/29 13:27:01;;;;;;;;;;;25.00;99.90;;;;;;5060228;28;19980;-70
2022/10/29 13:29:41;;;;;;;;;;;24.90;99.90;;;;;;5066109;28;20119;-71
2022/10/29 13:32:08;;;;;;;;;;;24.70;99.90;;;;;;5043683;28;19956;-70
2022/10/29 13:34:56;;;;;;;;;;;24.60;99.90;;;;;;5043729;28;19984;-70
2022/10/29 13:37:36;;;;;;;;;;;24.40;99.90;;;;;;5043784;28;19921;-71
2022/10/29 13:40:17;;;;;;;;;;;24.30;99.90;;;;;;5043811;28;19936;-70
2022/10/29 13:42:45;;;;;;;;;;;24.20;99.90;;;;;;5042816;28;20018;-71
2022/10/29 13:45:13;;;;;;;;;;;24.00;99.90;;;;;;5060370;28;19992;-71
2022/10/29 13:47:40;;;;;;;;;;;23.90;99.90;;;;;;5063634;28;19927;-71
2022/10/29 13:50:07;;;;;;;;;;;23.80;99.90;;;;;;5063685;28;19920;-70
2022/10/29 13:52:36;;;;;;;;;;;23.70;99.90;;;;;;5081587;28;19955;-71
2022/10/29 13:55:07;;;;;;;;;;;23.60;99.90;;;;;;5082224;28;19925;-71
2022/10/29 13:57:35;;;;;;;;;;;23.50;99.90;;;;;;5083348;28;19927;-71
2022/10/29 14:00:04;;;;;;;;;;;23.40;99.90;;;;;;5083683;28;19920;-71
2022/10/29 14:02:44;;;;;;;;;;;23.40;99.90;;;;;;5083455;28;19920;-71
2022/10/29 14:05:14;;;;;;;;;;;23.40;99.90;;;;;;5042626;28;19930;-70
2022/10/29 14:07:42;;;;;;;;;;;23.40;99.90;;;;;;5042253;28;19984;-70
2022/10/29 14:10:16;;;;;;;;;;;23.30;99.90;;;;;;5043027;28;19928;-70
2022/10/29 14:12:45;;;;;;;;;;;23.20;99.90;;;;;;5042659;28;19921;-70
2022/10/29 14:15:14;;;;;;;;;;;23.20;99.90;;;;;;5063490;28;19928;-70
2022/10/29 14:17:40;;;;;;;;;;;23.10;99.90;;;;;;5062597;28;19925;-71
2022/10/29 14:20:18;;;;;;;;;;;23.10;99.90;;;;;;5062934;28;19991;-71
2022/10/29 14:22:45;;;;;;;;;;;23.00;99.90;;;;;;5062456;28;19991;-71
2022/10/29 14:25:28;;;;;;;;;;;23.00;99.90;;;;;;5062194;28;19956;-70
2022/10/29 14:28:08;;;;;;;;;;;22.90;99.90;;;;;;5067844;28;19928;-71